Costa Mediterranea — IBCF — position and weather

sailwx.info

Track history (hours):
 
Tides and Currents Weather Stations Pressure Air Temp Water Temp Dewpoint Dewpoint Depression Visibility Wind Speed Wind Dir Waves Ship Positions

Costa Mediterranea

Last reported at 2019-Oct-05 21:16 UTC. Time now 2019-Nov-20 09:23 UTC.
Position N 37°11' E 016°28'.
Warning: this ship's position is 45 days out of date.

Length 293 m; draft 8 m.

Type: Passenger vessel. MMSI: 247088200.

Date/timePositionNaut miles runAvg speedWind from/ knotsBaromVisibWave heightAir tempDewpointWater temp
2019-Oct-05 21:16N 37°11' E 016°28'1414.3
2019-Oct-05 20:15N 37°15' E 016°11'314.2
2019-Oct-05 20:00N 37°15' E 016°07'714.1
2019-Oct-05 19:30N 37°17' E 015°58'714.1
2019-Oct-05 19:00N 37°19' E 015°49'714.2
2019-Oct-05 18:30N 37°21' E 015°41'714.3
2019-Oct-05 18:00N 37°22' E 015°32'714.3
2019-Oct-05 17:30N 37°24' E 015°23'17 1.3
2019-Oct-05 05:06N 37°41' E 015°21'219.4
2019-Oct-05 05:00N 37°42' E 015°22'1919.7
2019-Oct-05 04:04N 37°60' E 015°31'119.6
2019-Oct-05 04:00N 38°01' E 015°32'1019.0
2019-Oct-05 03:29N 38°10' E 015°36'916.4
2019-Oct-05 02:56N 38°18' E 015°40'716.4
2019-Oct-05 02:30N 38°25' E 015°36'815.1
2019-Oct-05 02:00N 38°31' E 015°32'714.9
2019-Oct-05 01:30N 38°38' E 015°27'1019.2
2019-Oct-05 00:59N 38°47' E 015°21'1019.9
2019-Oct-05 00:29N 38°55' E 015°15'6519.9
2019-Oct-04 21:13N 39°53' E 014°36'420.3
2019-Oct-04 21:00N 39°57' E 014°33'1019.6
2019-Oct-04 20:30N 40°06' E 014°27'1019.8
2019-Oct-04 20:00N 40°14' E 014°21'1019.5
2019-Oct-04 19:30N 40°23' E 014°15'1119.5
2019-Oct-04 18:57N 40°32' E 014°09'919.8
2019-Oct-04 18:30N 40°41' E 014°13'815.2
2019-Oct-04 18:00N 40°48' E 014°16'2 4.2
2019-Oct-04 17:28N 40°50' E 014°16'0 0.0
2019-Oct-04 16:58N 40°50' E 014°16'0 0.0
2019-Oct-04 16:28N 40°50' E 014°16'0 0.0
2019-Oct-04 15:58N 40°50' E 014°16'0 0.0
2019-Oct-04 15:28N 40°50' E 014°16'0 0.0
2019-Oct-04 14:58N 40°50' E 014°16'0 0.0
2019-Oct-04 14:19N 40°50' E 014°16'0 0.0
2019-Oct-04 13:49N 40°50' E 014°16'0 0.0
2019-Oct-04 13:22N 40°50' E 014°16'0 0.0
2019-Oct-04 12:52N 40°50' E 014°16'0 0.0
2019-Oct-04 12:22N 40°50' E 014°16'0 0.0
2019-Oct-04 11:52N 40°50' E 014°16'0 0.0
2019-Oct-04 11:30N 40°50' E 014°16'1 1.8
2019-Oct-04 11:00N 40°50' E 014°17'611.9
2019-Oct-04 10:31N 40°45' E 014°13'1019.4
2019-Oct-04 10:00N 40°38' E 014°03'1019.2
2019-Oct-04 09:30N 40°38' E 013°51'1119.4
2019-Oct-04 08:56N 40°45' E 013°40'919.7
2019-Oct-04 08:29N 40°52' E 013°31'15619.6
2019-Oct-04 00:29N 42°21' E 010°39'1219.9
2019-Oct-03 23:54N 42°28' E 010°27'819.9
2019-Oct-03 23:29N 42°34' E 010°18'919.7
2019-Oct-03 23:00N 42°40' E 010°09'1619.8
2019-Oct-03 22:12N 42°48' E 009°50'1119.7
2019-Oct-03 21:40N 42°54' E 009°38'319.9
2019-Oct-03 21:30N 42°57' E 009°37'1020.1
2019-Oct-03 21:00N 43°06' E 009°33'1019.6
2019-Oct-03 20:30N 43°16' E 009°29'1019.2
2019-Oct-03 20:01N 43°25' E 009°24'1019.2
2019-Oct-03 19:30N 43°34' E 009°20'1019.5
2019-Oct-03 19:01N 43°43' E 009°16'1019.3
2019-Oct-03 18:31N 43°52' E 009°11'919.0
2019-Oct-03 18:01N 44°01' E 009°07'1019.4
2019-Oct-03 17:31N 44°10' E 009°03'917.4
2019-Oct-03 17:00N 44°18' E 008°59'612.1
2019-Oct-03 16:30N 44°24' E 008°55'1 1.5
2019-Oct-03 16:00N 44°25' E 008°55'0 0.0
2019-Oct-03 15:30N 44°25' E 008°55'0 0.0
2019-Oct-03 15:00N 44°25' E 008°55'0 0.0
2019-Oct-03 14:30N 44°25' E 008°55'0 0.0
2019-Oct-03 13:54N 44°25' E 008°55'0 0.0
2019-Oct-03 13:30N 44°25' E 008°55'0 0.0
2019-Oct-03 13:00N 44°25' E 008°55'0 0.0
2019-Oct-03 12:27N 44°25' E 008°55'0 0.0
2019-Oct-03 12:00N 44°25' E 008°55'0 0.0
2019-Oct-03 11:30N 44°25' E 008°55'0 0.0
2019-Oct-03 10:54N 44°25' E 008°55'0 0.0
2019-Oct-03 10:27N 44°25' E 008°55'0 0.0
2019-Oct-03 10:00N 44°25' E 008°55'0 0.0
2019-Oct-03 09:27N 44°25' E 008°55'0 0.0
2019-Oct-03 09:00N 44°25' E 008°55'0 0.0
2019-Oct-03 08:30N 44°25' E 008°55'0 0.0
2019-Oct-03 08:00N 44°25' E 008°55'0 0.0
2019-Oct-03 07:27N 44°25' E 008°55'0 0.0
2019-Oct-03 07:00N 44°25' E 008°55'0 0.0
2019-Oct-03 06:30N 44°25' E 008°55'0 0.0
2019-Oct-03 06:00N 44°25' E 008°55'1 1.1
2019-Oct-03 05:30N 44°24' E 008°55'2 3.1
2019-Oct-03 05:00N 44°23' E 008°57'611.9
2019-Oct-03 04:30N 44°17' E 008°59'714.0
2019-Oct-03 04:01N 44°13' E 008°51'714.3
2019-Oct-03 03:31N 44°08' E 008°44'714.9
2019-Oct-03 03:01N 44°04' E 008°35'815.1
2019-Oct-03 02:31N 43°59' E 008°27'815.0
2019-Oct-03 02:01N 43°55' E 008°19'714.8
2019-Oct-03 01:31N 43°50' E 008°11'816.0
2019-Oct-03 01:00N 43°44' E 008°03'918.1
2019-Oct-03 00:31N 43°39' E 007°53'918.1
2019-Oct-03 00:01N 43°34' E 007°43'918.1
2019-Oct-02 23:31N 43°28' E 007°32'918.4
2019-Oct-02 23:00N 43°23' E 007°22'918.5
2019-Oct-02 22:30N 43°18' E 007°12'918.9
2019-Oct-02 22:01N 43°12' E 007°01'918.9
2019-Oct-02 21:31N 43°08' E 006°50'917.2
2019-Oct-02 21:00N 43°03' E 006°40'177 6.9
2019-Oct-01 19:19N 41°45' E 003°04'619.8
2019-Oct-01 19:00N 41°41' E 002°58'1019.9
2019-Oct-01 18:30N 41°35' E 002°48'1019.8
2019-Oct-01 18:00N 41°29' E 002°37'1020.3
2019-Oct-01 17:30N 41°23' E 002°27'918.8
2019-Oct-01 17:00N 41°17' E 002°17'611.3
2019-Oct-01 16:30N 41°19' E 002°10'2 3.8
2019-Oct-01 16:00N 41°21' E 002°10'0 0.0
2019-Oct-01 15:27N 41°21' E 002°10'0 0.0
2019-Oct-01 14:51N 41°21' E 002°10'0 0.0
2019-Oct-01 14:30N 41°21' E 002°10'0 0.0
2019-Oct-01 14:00N 41°21' E 002°10'0 0.0
2019-Oct-01 13:27N 41°21' E 002°10'0 0.0
2019-Oct-01 12:57N 41°21' E 002°10'0 0.0
2019-Oct-01 12:24N 41°21' E 002°10'0 0.0
2019-Oct-01 12:00N 41°21' E 002°10'0 0.0
2019-Oct-01 11:30N 41°21' E 002°10'0 0.0
2019-Oct-01 10:57N 41°21' E 002°10'0 0.0
2019-Oct-01 10:27N 41°21' E 002°10'0 0.0
2019-Oct-01 10:00N 41°21' E 002°10'0 0.0
2019-Oct-01 09:30N 41°21' E 002°10'0 0.0
2019-Oct-01 09:00N 41°21' E 002°10'0 0.0
2019-Oct-01 08:27N 41°21' E 002°10'0 0.0
2019-Oct-01 08:00N 41°21' E 002°10'0 0.0
2019-Oct-01 07:30N 41°21' E 002°10'0 0.0
2019-Oct-01 07:00N 41°21' E 002°10'0 0.0
2019-Oct-01 06:30N 41°21' E 002°10'0 0.0
2019-Oct-01 06:01N 41°21' E 002°10'1 2.7
2019-Oct-01 05:31N 41°20' E 002°10'3 6.0
2019-Oct-01 05:01N 41°17' E 002°11'2 4.1
2019-Oct-01 04:31N 41°15' E 002°11'612.9
2019-Oct-01 04:01N 41°09' E 002°07'815.3
2019-Oct-01 03:30N 41°02' E 002°03'815.9
2019-Oct-01 03:00N 40°55' E 001°58'915.6
2019-Oct-01 02:24N 40°47' E 001°52'36415.6
2019-Sep-30 03:00N 36°14' W 003°17'12119.2
2019-Sep-29 20:40N 35°55' W 005°45'519.6
2019-Sep-29 20:26N 35°55' W 005°50'4513.9
2019-Sep-29 17:12N 36°32' W 006°22'38 3.0
2019-Sep-29 04:22N 36°32' W 007°09'1719.5
2019-Sep-29 03:31N 36°32' W 007°30'019.7
2019-Sep-29 03:30N 36°32' W 007°30'1019.5
2019-Sep-29 03:00N 36°32' W 007°42'1019.3
2019-Sep-29 02:30N 36°32' W 007°54'1019.4
2019-Sep-29 02:00N 36°32' W 008°06'1019.2
2019-Sep-29 01:30N 36°32' W 008°18'918.9
2019-Sep-29 01:00N 36°32' W 008°30'918.9
2019-Sep-29 00:30N 36°31' W 008°42'1019.2
2019-Sep-29 00:00N 36°31' W 008°54'919.1
2019-Sep-28 23:30N 36°32' W 009°05'918.9
2019-Sep-28 23:00N 36°34' W 009°17'918.5
2019-Sep-28 22:30N 36°41' W 009°25'918.5
2019-Sep-28 22:00N 36°48' W 009°32'1019.0
2019-Sep-28 21:30N 36°57' W 009°35'1019.5
2019-Sep-28 21:00N 37°07' W 009°35'1019.3
2019-Sep-28 20:30N 37°17' W 009°34'1019.2
2019-Sep-28 20:00N 37°26' W 009°33'1019.0
2019-Sep-28 19:30N 37°36' W 009°32'1019.1
2019-Sep-28 19:00N 37°45' W 009°29'1019.6
2019-Sep-28 18:30N 37°55' W 009°28'1019.7
2019-Sep-28 18:00N 38°05' W 009°27'1020.0
2019-Sep-28 17:30N 38°15' W 009°26'1019.9
2019-Sep-28 17:01N 38°24' W 009°24'1019.2
2019-Sep-28 16:30N 38°34' W 009°23'817.0
2019-Sep-28 16:01N 38°41' W 009°17'611.9
2019-Sep-28 15:30N 38°42' W 009°09'2 3.5
2019-Sep-28 14:58N 38°43' W 009°07'0 0.0
2019-Sep-28 14:28N 38°43' W 009°07'0 0.0
2019-Sep-28 13:58N 38°43' W 009°07'0 0.0
2019-Sep-28 13:28N 38°43' W 009°07'0 0.0
2019-Sep-28 12:58N 38°43' W 009°07'0 0.0
2019-Sep-28 12:28N 38°43' W 009°07'0 0.0
2019-Sep-28 11:58N 38°43' W 009°07'0 0.0
2019-Sep-28 11:28N 38°43' W 009°07'0 0.0
2019-Sep-28 10:58N 38°43' W 009°07'0 0.0
2019-Sep-28 10:28N 38°43' W 009°07'0 0.0
2019-Sep-28 09:58N 38°43' W 009°07'0 0.0
2019-Sep-28 09:28N 38°43' W 009°07'0 0.1
2019-Sep-28 09:02N 38°43' W 009°07'0 0.1
2019-Sep-28 08:59N 38°43' W 009°07'0 1.7
2019-Sep-28 08:58N 38°43' W 009°07'0 0.0
2019-Sep-28 08:28N 38°43' W 009°07'0 0.0
2019-Sep-28 07:58N 38°43' W 009°07'0 0.0
2019-Sep-28 07:28N 38°43' W 009°07'0 0.0
2019-Sep-28 06:58N 38°43' W 009°07'0 0.0
2019-Sep-28 06:30N 38°43' W 009°07'3 6.9
2019-Sep-28 06:00N 38°41' W 009°11'5 9.9
2019-Sep-28 05:30N 38°41' W 009°18'714.3
2019-Sep-28 05:01N 38°37' W 009°25'816.9
2019-Sep-28 04:30N 38°37' W 009°36'815.3
2019-Sep-28 04:00N 38°43' W 009°42'918.6
2019-Sep-28 03:30N 38°52' W 009°42'918.3
2019-Sep-28 03:01N 39°01' W 009°42'918.1
2019-Sep-28 02:30N 39°10' W 009°42'917.8
2019-Sep-28 02:00N 39°19' W 009°44'918.6
2019-Sep-28 01:30N 39°29' W 009°44'2018.8
2019-Sep-28 00:28N 39°48' W 009°39'2018.6
2019-Sep-27 23:24N 40°07' W 009°33'1019.0
2019-Sep-27 22:54N 40°16' W 009°31'  
Track history (hours):
 
Tides and Currents Weather Stations Pressure Air Temp Water Temp Dewpoint Dewpoint Depression Visibility Wind Speed Wind Dir Waves Ship Positions

Costa Mediterranea

Last reported at 2019-Oct-05 21:16 UTC. Time now 2019-Nov-20 09:23 UTC.
Position N 37°11' E 016°28'.
Warning: this ship's position is 45 days out of date.

Length 293 m; draft 8 m.

Type: Passenger vessel. MMSI: 247088200.

Date/timePositionNaut miles runAvg speedWind from/ knotsBaromVisibWave heightAir tempDewpointWater temp
2019-Oct-05 21:16N 37°11' E 016°28'1414.3
2019-Oct-05 20:15N 37°15' E 016°11'314.2
2019-Oct-05 20:00N 37°15' E 016°07'714.1
2019-Oct-05 19:30N 37°17' E 015°58'714.1
2019-Oct-05 19:00N 37°19' E 015°49'714.2
2019-Oct-05 18:30N 37°21' E 015°41'714.3
2019-Oct-05 18:00N 37°22' E 015°32'714.3
2019-Oct-05 17:30N 37°24' E 015°23'17 1.3
2019-Oct-05 05:06N 37°41' E 015°21'219.4
2019-Oct-05 05:00N 37°42' E 015°22'1919.7
2019-Oct-05 04:04N 37°60' E 015°31'119.6
2019-Oct-05 04:00N 38°01' E 015°32'1019.0
2019-Oct-05 03:29N 38°10' E 015°36'916.4
2019-Oct-05 02:56N 38°18' E 015°40'716.4
2019-Oct-05 02:30N 38°25' E 015°36'815.1
2019-Oct-05 02:00N 38°31' E 015°32'714.9
2019-Oct-05 01:30N 38°38' E 015°27'1019.2
2019-Oct-05 00:59N 38°47' E 015°21'1019.9
2019-Oct-05 00:29N 38°55' E 015°15'6519.9
2019-Oct-04 21:13N 39°53' E 014°36'420.3
2019-Oct-04 21:00N 39°57' E 014°33'1019.6
2019-Oct-04 20:30N 40°06' E 014°27'1019.8
2019-Oct-04 20:00N 40°14' E 014°21'1019.5
2019-Oct-04 19:30N 40°23' E 014°15'1119.5
2019-Oct-04 18:57N 40°32' E 014°09'919.8
2019-Oct-04 18:30N 40°41' E 014°13'815.2
2019-Oct-04 18:00N 40°48' E 014°16'2 4.2
2019-Oct-04 17:28N 40°50' E 014°16'0 0.0
2019-Oct-04 16:58N 40°50' E 014°16'0 0.0
2019-Oct-04 16:28N 40°50' E 014°16'0 0.0
2019-Oct-04 15:58N 40°50' E 014°16'0 0.0
2019-Oct-04 15:28N 40°50' E 014°16'0 0.0
2019-Oct-04 14:58N 40°50' E 014°16'0 0.0
2019-Oct-04 14:19N 40°50' E 014°16'0 0.0
2019-Oct-04 13:49N 40°50' E 014°16'0 0.0
2019-Oct-04 13:22N 40°50' E 014°16'0 0.0
2019-Oct-04 12:52N 40°50' E 014°16'0 0.0
2019-Oct-04 12:22N 40°50' E 014°16'0 0.0
2019-Oct-04 11:52N 40°50' E 014°16'0 0.0
2019-Oct-04 11:30N 40°50' E 014°16'1 1.8
2019-Oct-04 11:00N 40°50' E 014°17'611.9
2019-Oct-04 10:31N 40°45' E 014°13'1019.4
2019-Oct-04 10:00N 40°38' E 014°03'1019.2
2019-Oct-04 09:30N 40°38' E 013°51'1119.4
2019-Oct-04 08:56N 40°45' E 013°40'919.7
2019-Oct-04 08:29N 40°52' E 013°31'15619.6
2019-Oct-04 00:29N 42°21' E 010°39'1219.9
2019-Oct-03 23:54N 42°28' E 010°27'819.9
2019-Oct-03 23:29N 42°34' E 010°18'919.7
2019-Oct-03 23:00N 42°40' E 010°09'1619.8
2019-Oct-03 22:12N 42°48' E 009°50'1119.7
2019-Oct-03 21:40N 42°54' E 009°38'319.9
2019-Oct-03 21:30N 42°57' E 009°37'1020.1
2019-Oct-03 21:00N 43°06' E 009°33'1019.6
2019-Oct-03 20:30N 43°16' E 009°29'1019.2
2019-Oct-03 20:01N 43°25' E 009°24'1019.2
2019-Oct-03 19:30N 43°34' E 009°20'1019.5
2019-Oct-03 19:01N 43°43' E 009°16'1019.3
2019-Oct-03 18:31N 43°52' E 009°11'919.0
2019-Oct-03 18:01N 44°01' E 009°07'1019.4
2019-Oct-03 17:31N 44°10' E 009°03'917.4
2019-Oct-03 17:00N 44°18' E 008°59'612.1
2019-Oct-03 16:30N 44°24' E 008°55'1 1.5
2019-Oct-03 16:00N 44°25' E 008°55'0 0.0
2019-Oct-03 15:30N 44°25' E 008°55'0 0.0
2019-Oct-03 15:00N 44°25' E 008°55'0 0.0
2019-Oct-03 14:30N 44°25' E 008°55'0 0.0
2019-Oct-03 13:54N 44°25' E 008°55'0 0.0
2019-Oct-03 13:30N 44°25' E 008°55'0 0.0
2019-Oct-03 13:00N 44°25' E 008°55'0 0.0
2019-Oct-03 12:27N 44°25' E 008°55'0 0.0
2019-Oct-03 12:00N 44°25' E 008°55'0 0.0
2019-Oct-03 11:30N 44°25' E 008°55'0 0.0
2019-Oct-03 10:54N 44°25' E 008°55'0 0.0
2019-Oct-03 10:27N 44°25' E 008°55'0 0.0
2019-Oct-03 10:00N 44°25' E 008°55'0 0.0
2019-Oct-03 09:27N 44°25' E 008°55'0 0.0
2019-Oct-03 09:00N 44°25' E 008°55'0 0.0
2019-Oct-03 08:30N 44°25' E 008°55'0 0.0
2019-Oct-03 08:00N 44°25' E 008°55'0 0.0
2019-Oct-03 07:27N 44°25' E 008°55'0 0.0
2019-Oct-03 07:00N 44°25' E 008°55'0 0.0
2019-Oct-03 06:30N 44°25' E 008°55'0 0.0
2019-Oct-03 06:00N 44°25' E 008°55'1 1.1
2019-Oct-03 05:30N 44°24' E 008°55'2 3.1
2019-Oct-03 05:00N 44°23' E 008°57'611.9
2019-Oct-03 04:30N 44°17' E 008°59'714.0
2019-Oct-03 04:01N 44°13' E 008°51'714.3
2019-Oct-03 03:31N 44°08' E 008°44'714.9
2019-Oct-03 03:01N 44°04' E 008°35'815.1
2019-Oct-03 02:31N 43°59' E 008°27'815.0
2019-Oct-03 02:01N 43°55' E 008°19'714.8
2019-Oct-03 01:31N 43°50' E 008°11'816.0
2019-Oct-03 01:00N 43°44' E 008°03'918.1
2019-Oct-03 00:31N 43°39' E 007°53'918.1
2019-Oct-03 00:01N 43°34' E 007°43'918.1
2019-Oct-02 23:31N 43°28' E 007°32'918.4
2019-Oct-02 23:00N 43°23' E 007°22'918.5
2019-Oct-02 22:30N 43°18' E 007°12'918.9
2019-Oct-02 22:01N 43°12' E 007°01'918.9
2019-Oct-02 21:31N 43°08' E 006°50'917.2
2019-Oct-02 21:00N 43°03' E 006°40'177 6.9
2019-Oct-01 19:19N 41°45' E 003°04'619.8
2019-Oct-01 19:00N 41°41' E 002°58'1019.9
2019-Oct-01 18:30N 41°35' E 002°48'1019.8
2019-Oct-01 18:00N 41°29' E 002°37'1020.3
2019-Oct-01 17:30N 41°23' E 002°27'918.8
2019-Oct-01 17:00N 41°17' E 002°17'611.3
2019-Oct-01 16:30N 41°19' E 002°10'2 3.8
2019-Oct-01 16:00N 41°21' E 002°10'0 0.0
2019-Oct-01 15:27N 41°21' E 002°10'0 0.0
2019-Oct-01 14:51N 41°21' E 002°10'0 0.0
2019-Oct-01 14:30N 41°21' E 002°10'0 0.0
2019-Oct-01 14:00N 41°21' E 002°10'0 0.0
2019-Oct-01 13:27N 41°21' E 002°10'0 0.0
2019-Oct-01 12:57N 41°21' E 002°10'0 0.0
2019-Oct-01 12:24N 41°21' E 002°10'0 0.0
2019-Oct-01 12:00N 41°21' E 002°10'0 0.0
2019-Oct-01 11:30N 41°21' E 002°10'0 0.0
2019-Oct-01 10:57N 41°21' E 002°10'0 0.0
2019-Oct-01 10:27N 41°21' E 002°10'0 0.0
2019-Oct-01 10:00N 41°21' E 002°10'0 0.0
2019-Oct-01 09:30N 41°21' E 002°10'0 0.0
2019-Oct-01 09:00N 41°21' E 002°10'0 0.0
2019-Oct-01 08:27N 41°21' E 002°10'0 0.0
2019-Oct-01 08:00N 41°21' E 002°10'0 0.0
2019-Oct-01 07:30N 41°21' E 002°10'0 0.0
2019-Oct-01 07:00N 41°21' E 002°10'0 0.0
2019-Oct-01 06:30N 41°21' E 002°10'0 0.0
2019-Oct-01 06:01N 41°21' E 002°10'1 2.7
2019-Oct-01 05:31N 41°20' E 002°10'3 6.0
2019-Oct-01 05:01N 41°17' E 002°11'2 4.1
2019-Oct-01 04:31N 41°15' E 002°11'612.9
2019-Oct-01 04:01N 41°09' E 002°07'815.3
2019-Oct-01 03:30N 41°02' E 002°03'815.9
2019-Oct-01 03:00N 40°55' E 001°58'915.6
2019-Oct-01 02:24N 40°47' E 001°52'36415.6
2019-Sep-30 03:00N 36°14' W 003°17'12119.2
2019-Sep-29 20:40N 35°55' W 005°45'519.6
2019-Sep-29 20:26N 35°55' W 005°50'4513.9
2019-Sep-29 17:12N 36°32' W 006°22'38 3.0
2019-Sep-29 04:22N 36°32' W 007°09'1719.5
2019-Sep-29 03:31N 36°32' W 007°30'019.7
2019-Sep-29 03:30N 36°32' W 007°30'1019.5
2019-Sep-29 03:00N 36°32' W 007°42'1019.3
2019-Sep-29 02:30N 36°32' W 007°54'1019.4
2019-Sep-29 02:00N 36°32' W 008°06'1019.2
2019-Sep-29 01:30N 36°32' W 008°18'918.9
2019-Sep-29 01:00N 36°32' W 008°30'918.9
2019-Sep-29 00:30N 36°31' W 008°42'1019.2
2019-Sep-29 00:00N 36°31' W 008°54'919.1
2019-Sep-28 23:30N 36°32' W 009°05'918.9
2019-Sep-28 23:00N 36°34' W 009°17'918.5
2019-Sep-28 22:30N 36°41' W 009°25'918.5
2019-Sep-28 22:00N 36°48' W 009°32'1019.0
2019-Sep-28 21:30N 36°57' W 009°35'1019.5
2019-Sep-28 21:00N 37°07' W 009°35'1019.3
2019-Sep-28 20:30N 37°17' W 009°34'1019.2
2019-Sep-28 20:00N 37°26' W 009°33'1019.0
2019-Sep-28 19:30N 37°36' W 009°32'1019.1
2019-Sep-28 19:00N 37°45' W 009°29'1019.6
2019-Sep-28 18:30N 37°55' W 009°28'1019.7
2019-Sep-28 18:00N 38°05' W 009°27'1020.0
2019-Sep-28 17:30N 38°15' W 009°26'1019.9
2019-Sep-28 17:01N 38°24' W 009°24'1019.2
2019-Sep-28 16:30N 38°34' W 009°23'817.0
2019-Sep-28 16:01N 38°41' W 009°17'611.9
2019-Sep-28 15:30N 38°42' W 009°09'2 3.5
2019-Sep-28 14:58N 38°43' W 009°07'0 0.0
2019-Sep-28 14:28N 38°43' W 009°07'0 0.0
2019-Sep-28 13:58N 38°43' W 009°07'0 0.0
2019-Sep-28 13:28N 38°43' W 009°07'0 0.0
2019-Sep-28 12:58N 38°43' W 009°07'0 0.0
2019-Sep-28 12:28N 38°43' W 009°07'0 0.0
2019-Sep-28 11:58N 38°43' W 009°07'0 0.0
2019-Sep-28 11:28N 38°43' W 009°07'0 0.0
2019-Sep-28 10:58N 38°43' W 009°07'0 0.0
2019-Sep-28 10:28N 38°43' W 009°07'0 0.0
2019-Sep-28 09:58N 38°43' W 009°07'0 0.0
2019-Sep-28 09:28N 38°43' W 009°07'0 0.1
2019-Sep-28 09:02N 38°43' W 009°07'0 0.1
2019-Sep-28 08:59N 38°43' W 009°07'0 1.7
2019-Sep-28 08:58N 38°43' W 009°07'0 0.0
2019-Sep-28 08:28N 38°43' W 009°07'0 0.0
2019-Sep-28 07:58N 38°43' W 009°07'0 0.0
2019-Sep-28 07:28N 38°43' W 009°07'0 0.0
2019-Sep-28 06:58N 38°43' W 009°07'0 0.0
2019-Sep-28 06:30N 38°43' W 009°07'3 6.9
2019-Sep-28 06:00N 38°41' W 009°11'5 9.9
2019-Sep-28 05:30N 38°41' W 009°18'714.3
2019-Sep-28 05:01N 38°37' W 009°25'816.9
2019-Sep-28 04:30N 38°37' W 009°36'815.3
2019-Sep-28 04:00N 38°43' W 009°42'918.6
2019-Sep-28 03:30N 38°52' W 009°42'918.3
2019-Sep-28 03:01N 39°01' W 009°42'918.1
2019-Sep-28 02:30N 39°10' W 009°42'917.8
2019-Sep-28 02:00N 39°19' W 009°44'918.6
2019-Sep-28 01:30N 39°29' W 009°44'2018.8
2019-Sep-28 00:28N 39°48' W 009°39'2018.6
2019-Sep-27 23:24N 40°07' W 009°33'1019.0
2019-Sep-27 22:54N 40°16' W 009°31'  

Dump ship's entire track history